Cocos Keeling Island Airport
YPCC : now visible

Airfield :











YOU CAN JOIN US ON...

 
LOGIN :

Register | Disclaimer

   EN    FR    IT 

 









Legend :    VFR   Marginal VFR   IFR   Intensive IFR   Very Intensive IFR
Visi :
Ceiling :
>= 8 km
>= 3000ft
5 to 8 km
1000 to 3000 ft
1500m to 5 km
500 to 1000 ft
800 to 1500m
200 to 500 ft
< 800m
< 200 ft
Symbols :   Thunderstorms  Fog  Heavy snow  Heavy precipitations  Wind > 20 kt






- Airport Elevation : 10 ft
- IATA code : CCK


YPCC - Cocos Keeling Island

CURRENT METAR :
  • 180000Z AUTO 11012KT 9999 // SCT019 BKN059 26/23 Q1013

EXPIRED METARs :
  • 172330Z AUTO 11011KT 9999 // BKN021 OVC029 27/24 Q1013
  • 172300Z AUTO 11012KT 9999 // SCT021 SCT024 BKN049 27/23 Q1013
  • 172230Z AUTO 12015KT 9999 // SCT021 SCT031 BKN041 27/23 Q1012
  • 172200Z AUTO 12014KT 9999 // SCT022 BKN029 BKN035 27/24 Q1012
  • 172130Z AUTO 11011KT 9999 // SCT022 SCT029 OVC042 27/23 Q1012

TAF TAF YPCC
Valid from the 18 at 00:00 until the 19 at 00:00 UTC


172333Z 1800/1900 11014KT 9999 SCT020 INTER 1800/1900 2000 SHRA BKN015
YMMM FIR / Asia



MET'MAP, your aeronautical weather chart ! - Copyright ORBIFLY December 2007 - Disclaimer

ORBIFLY MET'MAP TEAM :

Programming & Development : Alexandra Zaïnal
Concept & original design : Baudouin d'Aumeries
Assistance for programming : Marc-Olivier Méhu
Technical & hardware support : Manuel Goepfert

Contact : metmap@orbifly.com




SOURCES & CREDITS :

   NOAA       Earth
Advisory